Dal Kalahari — A8FQ8 — position and weather

sailwx.info

Track history (hours):
 
Tides and Currents Weather Stations Pressure Air Temp Water Temp Dewpoint Dewpoint Depression Visibility Wind Speed Wind Dir Waves Ship Positions

Dal Kalahari

Last reported at 2014-Aug-20 02:24 UTC. Time now 2014-Aug-20 04:55 UTC.
Position S 38°30' E 148°34'.

Length 266 m; beam 37 m; draft 12.5 m.

Type: Ship (hazmat cat C). MMSI: 636090797.

Date/timePositionNaut miles runAvg speedWind from/ knotsBaromVisibWave heightAir tempDewpointWater temp
2014-Aug-20 02:24S 38°30' E 148°34'6415.1
2014-Aug-19 22:10S 37°52' E 149°40'1015.6
2014-Aug-19 21:33S 37°46' E 149°49'1615.5
2014-Aug-19 20:32S 37°36' E 150°05'1615.8
2014-Aug-19 19:32S 37°21' E 150°09'  
2014-Aug-17 05:12S 33°09' E 152°08'811.6
2014-Aug-17 04:33S 33°03' E 152°14'1211.9
2014-Aug-17 03:33S 32°54' E 152°22'1212.2
2014-Aug-17 02:33S 32°44' E 152°30'1313.2
2014-Aug-17 01:33S 32°33' E 152°39'3013.2
2014-Aug-16 23:18S 32°04' E 152°50'24913.9
2014-Aug-16 05:20S 27°60' E 153°44'1113.7
2014-Aug-16 04:33S 27°49' E 153°43'1414.1
2014-Aug-16 03:33S 27°35' E 153°42'1413.6
2014-Aug-16 02:33S 27°21' E 153°41'1413.9
2014-Aug-16 01:33S 27°08' E 153°38'1413.9
2014-Aug-16 00:33S 26°54' E 153°33'1413.6
2014-Aug-15 23:33S 26°48' E 153°20'8 8.3
2014-Aug-15 22:33S 26°45' E 153°11'1514.6
2014-Aug-15 21:34S 26°59' E 153°14'1615.6
2014-Aug-15 20:33S 27°14' E 153°20'1211.5
2014-Aug-15 19:34S 27°22' E 153°11'0 0.1
2014-Aug-15 18:33S 27°22' E 153°11'0 0.0
2014-Aug-15 17:33S 27°22' E 153°11'0 0.1
2014-Aug-15 16:33S 27°22' E 153°11'0 0.0
2014-Aug-15 15:33S 27°22' E 153°11'0 0.0
2014-Aug-15 14:33S 27°22' E 153°11'0 0.0
2014-Aug-15 13:33S 27°22' E 153°11'0 0.1
2014-Aug-15 12:33S 27°22' E 153°11'0 0.0
2014-Aug-15 11:33S 27°22' E 153°11'0 0.1
2014-Aug-15 10:33S 27°22' E 153°11'0 0.1
2014-Aug-15 09:33S 27°22' E 153°11'0 0.0
2014-Aug-15 08:09S 27°22' E 153°11'0 0.0
2014-Aug-15 07:33S 27°22' E 153°11'0 0.0
2014-Aug-15 06:33S 27°22' E 153°11'0 0.0
2014-Aug-15 05:33S 27°22' E 153°11'0 0.0
2014-Aug-15 04:33S 27°22' E 153°11'1 0.8
2014-Aug-15 03:33S 27°21' E 153°11'1413.9
2014-Aug-15 02:34S 27°10' E 153°21'1716.9
2014-Aug-15 01:34S 26°56' E 153°12'1312.9
2014-Aug-15 00:33S 26°43' E 153°12'1514.6
2014-Aug-14 23:34S 26°30' E 153°19'  
2014-Aug-11 18:00S 06°42' E 148°48'   140 / 151010.1 5.4 2.028.023.929.0
Track history (hours):
 
Tides and Currents Weather Stations Pressure Air Temp Water Temp Dewpoint Dewpoint Depression Visibility Wind Speed Wind Dir Waves Ship Positions

Dal Kalahari

Last reported at 2014-Aug-20 02:24 UTC. Time now 2014-Aug-20 04:55 UTC.
Position S 38°30' E 148°34'.

Length 266 m; beam 37 m; draft 12.5 m.

Type: Ship (hazmat cat C). MMSI: 636090797.

Date/timePositionNaut miles runAvg speedWind from/ knotsBaromVisibWave heightAir tempDewpointWater temp
2014-Aug-20 02:24S 38°30' E 148°34'6415.1
2014-Aug-19 22:10S 37°52' E 149°40'1015.6
2014-Aug-19 21:33S 37°46' E 149°49'1615.5
2014-Aug-19 20:32S 37°36' E 150°05'1615.8
2014-Aug-19 19:32S 37°21' E 150°09'  
2014-Aug-17 05:12S 33°09' E 152°08'811.6
2014-Aug-17 04:33S 33°03' E 152°14'1211.9
2014-Aug-17 03:33S 32°54' E 152°22'1212.2
2014-Aug-17 02:33S 32°44' E 152°30'1313.2
2014-Aug-17 01:33S 32°33' E 152°39'3013.2
2014-Aug-16 23:18S 32°04' E 152°50'24913.9
2014-Aug-16 05:20S 27°60' E 153°44'1113.7
2014-Aug-16 04:33S 27°49' E 153°43'1414.1
2014-Aug-16 03:33S 27°35' E 153°42'1413.6
2014-Aug-16 02:33S 27°21' E 153°41'1413.9
2014-Aug-16 01:33S 27°08' E 153°38'1413.9
2014-Aug-16 00:33S 26°54' E 153°33'1413.6
2014-Aug-15 23:33S 26°48' E 153°20'8 8.3
2014-Aug-15 22:33S 26°45' E 153°11'1514.6
2014-Aug-15 21:34S 26°59' E 153°14'1615.6
2014-Aug-15 20:33S 27°14' E 153°20'1211.5
2014-Aug-15 19:34S 27°22' E 153°11'0 0.1
2014-Aug-15 18:33S 27°22' E 153°11'0 0.0
2014-Aug-15 17:33S 27°22' E 153°11'0 0.1
2014-Aug-15 16:33S 27°22' E 153°11'0 0.0
2014-Aug-15 15:33S 27°22' E 153°11'0 0.0
2014-Aug-15 14:33S 27°22' E 153°11'0 0.0
2014-Aug-15 13:33S 27°22' E 153°11'0 0.1
2014-Aug-15 12:33S 27°22' E 153°11'0 0.0
2014-Aug-15 11:33S 27°22' E 153°11'0 0.1
2014-Aug-15 10:33S 27°22' E 153°11'0 0.1
2014-Aug-15 09:33S 27°22' E 153°11'0 0.0
2014-Aug-15 08:09S 27°22' E 153°11'0 0.0
2014-Aug-15 07:33S 27°22' E 153°11'0 0.0
2014-Aug-15 06:33S 27°22' E 153°11'0 0.0
2014-Aug-15 05:33S 27°22' E 153°11'0 0.0
2014-Aug-15 04:33S 27°22' E 153°11'1 0.8
2014-Aug-15 03:33S 27°21' E 153°11'1413.9
2014-Aug-15 02:34S 27°10' E 153°21'1716.9
2014-Aug-15 01:34S 26°56' E 153°12'1312.9
2014-Aug-15 00:33S 26°43' E 153°12'1514.6
2014-Aug-14 23:34S 26°30' E 153°19'  
2014-Aug-11 18:00S 06°42' E 148°48'   140 / 151010.1 5.4 2.028.023.929.0

Dump ship's entire track history